createdAt,value
2022-11-22T00:03:31.599Z,79.20
2022-11-22T00:08:33.412Z,78.51
2022-11-22T00:13:34.848Z,78.95
2022-11-22T00:18:36.349Z,79.05
2022-11-22T00:23:37.773Z,78.70
2022-11-22T00:28:39.792Z,78.78
2022-11-22T00:33:41.241Z,78.58
2022-11-22T00:38:43.836Z,78.68
2022-11-22T00:43:45.267Z,79.10
2022-11-22T00:48:46.700Z,79.15
2022-11-22T00:53:48.151Z,78.75
2022-11-22T00:58:49.666Z,78.25
2022-11-22T01:03:51.028Z,79.12
2022-11-22T01:08:52.486Z,79.26
2022-11-22T01:13:53.863Z,78.88
2022-11-22T01:18:55.322Z,78.98
2022-11-22T01:23:56.663Z,79.36
2022-11-22T01:28:58.054Z,78.29
2022-11-22T01:34:00.000Z,78.97
2022-11-22T01:39:01.493Z,79.85
2022-11-22T01:44:20.106Z,79.83
2022-11-22T01:49:31.227Z,79.15
2022-11-22T01:54:36.076Z,79.69
2022-11-22T01:59:44.522Z,80.21
2022-11-22T02:04:47.278Z,79.66
2022-11-22T02:09:51.896Z,80.49
2022-11-22T02:14:54.082Z,79.38
2022-11-22T02:19:55.811Z,79.83
2022-11-22T02:25:03.149Z,79.70
2022-11-22T02:30:05.127Z,79.36
2022-11-22T02:35:20.133Z,79.67
2022-11-22T02:40:22.573Z,79.90
2022-11-22T02:45:24.259Z,79.64
2022-11-22T02:50:25.607Z,79.62
2022-11-22T02:55:26.970Z,79.00
2022-11-22T03:00:28.618Z,79.24
2022-11-22T03:05:30.001Z,79.86
2022-11-22T03:10:31.561Z,79.15
2022-11-22T03:15:32.953Z,78.95
2022-11-22T03:20:34.368Z,79.67
2022-11-22T03:25:39.163Z,79.60
2022-11-22T03:46:20.630Z,78.93
2022-11-22T03:51:21.990Z,79.41
2022-11-22T03:56:23.339Z,79.13
2022-11-22T04:01:24.954Z,79.09
2022-11-22T04:06:26.355Z,79.52
2022-11-22T04:11:27.895Z,79.82
2022-11-22T04:16:29.237Z,79.33
2022-11-22T04:21:36.349Z,79.54
2022-11-22T04:26:37.763Z,80.22
2022-11-22T04:31:57.571Z,79.68
2022-11-22T04:36:59.329Z,80.04
2022-11-22T04:42:19.568Z,80.13
2022-11-22T04:47:39.693Z,79.76
2022-11-22T05:03:15.365Z,80.35
2022-11-22T05:08:16.883Z,80.54
2022-11-22T05:13:20.036Z,80.55
2022-11-22T05:18:23.066Z,80.97
2022-11-22T05:23:43.413Z,80.77
2022-11-22T05:28:45.050Z,80.92
2022-11-22T05:33:46.595Z,80.69
2022-11-22T05:38:48.944Z,80.95
2022-11-22T05:43:50.860Z,80.67
2022-11-22T05:48:53.479Z,80.80
2022-11-22T05:53:59.107Z,81.03
2022-11-22T05:59:07.245Z,80.56
2022-11-22T06:04:08.786Z,80.64
2022-11-22T06:09:10.221Z,80.52
2022-11-22T06:14:11.700Z,80.68
2022-11-22T06:19:13.789Z,80.66
2022-11-22T06:24:15.361Z,80.72
2022-11-22T06:29:16.971Z,80.63
2022-11-22T06:34:18.506Z,80.19
2022-11-22T06:39:20.013Z,80.43
2022-11-22T06:44:21.882Z,80.19
2022-11-22T06:49:23.368Z,80.26
2022-11-22T06:54:24.765Z,79.98
2022-11-22T06:59:26.124Z,79.84
2022-11-22T07:04:27.848Z,79.56
2022-11-22T07:09:29.553Z,79.64
2022-11-22T07:14:31.584Z,79.70
2022-11-22T07:19:33.335Z,80.11
2022-11-22T07:24:34.736Z,79.65
2022-11-22T07:29:36.109Z,79.88
2022-11-22T07:34:37.470Z,79.80
2022-11-22T07:39:38.970Z,79.44
2022-11-22T07:44:40.321Z,80.15
2022-11-22T07:49:41.670Z,79.29
2022-11-22T07:54:43.066Z,79.88
2022-11-22T07:59:44.403Z,79.55
2022-11-22T08:04:46.363Z,79.94
2022-11-22T08:09:47.687Z,80.04
2022-11-22T08:14:49.042Z,79.93
2022-11-22T08:19:53.387Z,79.68
2022-11-22T08:24:54.763Z,79.70
2022-11-22T08:29:56.104Z,79.82
2022-11-22T08:34:57.447Z,80.02
2022-11-22T08:39:58.816Z,80.05
2022-11-22T08:45:00.169Z,80.17
2022-11-22T08:50:01.497Z,80.01
2022-11-22T08:55:02.939Z,79.82
2022-11-22T09:00:06.208Z,79.71
2022-11-22T09:05:07.905Z,79.79
2022-11-22T09:10:09.454Z,79.85
2022-11-22T09:15:11.093Z,79.56
2022-11-22T09:20:12.747Z,79.53
2022-11-22T09:25:14.107Z,79.31
2022-11-22T09:30:15.739Z,79.09
2022-11-22T09:35:20.031Z,79.24
2022-11-22T09:40:21.408Z,78.84
2022-11-22T09:45:52.576Z,79.03
2022-11-22T09:51:20.019Z,79.09
2022-11-22T09:56:24.797Z,79.59
2022-11-22T10:01:32.662Z,79.35
2022-11-22T10:06:37.492Z,78.99
2022-11-22T10:11:49.320Z,78.69
2022-11-22T10:17:07.011Z,78.57
2022-11-22T10:22:14.813Z,79.48
2022-11-22T10:27:16.682Z,79.29
2022-11-22T10:32:18.238Z,78.88
2022-11-22T10:37:34.230Z,78.38
2022-11-22T10:42:57.636Z,78.03
2022-11-22T10:48:08.685Z,78.10
2022-11-22T10:53:22.786Z,77.63
2022-11-22T10:59:04.313Z,77.73
2022-11-22T11:04:08.000Z,77.50
2022-11-22T11:15:34.083Z,76.93
2022-11-22T11:20:39.098Z,77.00
2022-11-22T11:25:43.342Z,76.79
2022-11-22T11:31:07.877Z,76.32
2022-11-22T11:36:21.965Z,75.58
2022-11-22T11:41:32.288Z,75.75
2022-11-22T11:46:36.821Z,75.80
2022-11-22T11:51:41.275Z,75.82
2022-11-22T11:57:03.527Z,75.54
2022-11-22T12:02:15.080Z,75.21
2022-11-22T12:07:46.719Z,75.48
2022-11-22T12:13:04.040Z,75.35
2022-11-22T12:18:19.119Z,76.71
2022-11-22T12:23:26.925Z,75.61
2022-11-22T12:28:29.181Z,75.30
2022-11-22T12:33:37.211Z,74.93
2022-11-22T12:38:44.560Z,74.62
2022-11-22T12:43:53.308Z,74.62
2022-11-22T12:49:33.038Z,74.30
2022-11-22T12:54:44.536Z,74.12
2022-11-22T12:59:53.300Z,73.40
2022-11-22T13:05:01.624Z,73.06
2022-11-22T13:10:11.391Z,73.06
2022-11-22T13:15:16.839Z,73.26
2022-11-22T13:20:21.589Z,72.61
2022-11-22T13:25:41.573Z,72.09
2022-11-22T13:31:07.391Z,72.45
2022-11-22T13:36:26.916Z,72.28
2022-11-22T13:41:37.144Z,71.85
2022-11-22T13:47:00.503Z,71.50
2022-11-22T13:52:25.904Z,71.64
2022-11-22T13:57:35.578Z,71.43
2022-11-22T14:02:37.858Z,71.42
2022-11-22T14:07:40.775Z,71.77
2022-11-22T14:12:54.345Z,71.22
2022-11-22T14:18:24.821Z,71.50
2022-11-22T14:23:50.642Z,70.93
2022-11-22T14:29:16.867Z,70.75
2022-11-22T14:34:24.581Z,70.99
2022-11-22T14:39:44.212Z,70.83
2022-11-22T14:44:46.832Z,71.11
2022-11-22T14:49:50.457Z,70.78
2022-11-22T14:55:00.549Z,70.75
2022-11-22T15:00:22.431Z,71.45
2022-11-22T15:09:23.875Z,71.85
2022-11-22T15:11:46.012Z,71.96
2022-11-22T16:00:26.705Z,71.76
2022-11-22T16:06:08.978Z,72.11
2022-11-22T16:10:56.730Z,72.04
2022-11-22T16:16:10.264Z,71.67
2022-11-22T16:21:11.591Z,72.21
2022-11-22T16:26:19.405Z,71.81
2022-11-22T16:31:27.294Z,72.12
2022-11-22T16:36:29.917Z,72.26
2022-11-22T16:41:31.347Z,72.58
2022-11-22T16:46:32.712Z,72.36
2022-11-22T16:51:34.254Z,72.52
2022-11-22T16:56:35.604Z,72.41
2022-11-22T17:01:37.619Z,72.39
2022-11-22T17:06:38.972Z,72.77
2022-11-22T17:11:43.150Z,73.45
2022-11-22T17:16:48.505Z,73.92
2022-11-22T17:21:49.880Z,74.58
2022-11-22T17:26:51.222Z,74.70
2022-11-22T17:31:52.541Z,74.93
2022-11-22T17:36:53.862Z,75.25
2022-11-22T17:41:55.225Z,75.39
2022-11-22T17:46:56.561Z,75.40
2022-11-22T17:51:57.953Z,75.65
2022-11-22T17:56:59.364Z,75.87
2022-11-22T18:02:00.688Z,75.75
2022-11-22T18:07:02.032Z,75.73
2022-11-22T18:12:03.593Z,76.03
2022-11-22T18:17:04.941Z,75.78
2022-11-22T18:22:06.291Z,75.96
2022-11-22T18:27:07.817Z,75.84
2022-11-22T18:32:09.790Z,76.22
2022-11-22T18:37:11.173Z,76.16
2022-11-22T18:42:15.153Z,76.00
2022-11-22T18:47:16.965Z,76.26
2022-11-22T18:52:18.414Z,76.26
2022-11-22T18:57:19.817Z,76.18
2022-11-22T19:02:25.659Z,76.61
2022-11-22T19:07:27.047Z,76.39
2022-11-22T19:12:28.994Z,76.40
2022-11-22T19:17:30.337Z,76.82
2022-11-22T19:22:31.658Z,76.48
2022-11-22T19:27:33.003Z,76.45
2022-11-22T19:32:34.358Z,76.52
2022-11-22T19:37:36.794Z,76.29
2022-11-22T19:42:39.851Z,76.63
2022-11-22T19:47:41.173Z,76.35
2022-11-22T19:52:42.594Z,76.40
2022-11-22T19:57:43.970Z,76.49
2022-11-22T20:02:45.347Z,76.50
2022-11-22T20:07:46.781Z,76.63
2022-11-22T20:12:49.543Z,76.74
2022-11-22T20:17:50.948Z,76.75
2022-11-22T20:22:52.300Z,76.77
2022-11-22T20:27:53.647Z,76.58
2022-11-22T20:32:54.979Z,76.29
2022-11-22T20:37:56.357Z,76.59
2022-11-22T20:42:57.713Z,76.34
2022-11-22T20:47:59.068Z,76.88
2022-11-22T20:53:00.413Z,76.84
2022-11-22T20:58:01.757Z,76.92
2022-11-22T21:03:03.126Z,77.00
2022-11-22T21:08:05.435Z,76.88
2022-11-22T21:13:07.062Z,77.07
2022-11-22T21:18:24.626Z,77.18
2022-11-22T21:23:26.797Z,76.83
2022-11-22T21:28:28.285Z,76.95
2022-11-22T21:33:32.661Z,77.48
2022-11-22T21:38:35.029Z,77.48
2022-11-22T21:43:36.416Z,77.35
2022-11-22T21:48:37.839Z,77.09
2022-11-22T21:53:39.205Z,76.76
2022-11-22T21:58:42.172Z,77.42
2022-11-22T22:03:43.519Z,77.34
2022-11-22T22:08:44.902Z,77.12
2022-11-22T22:13:46.318Z,76.98
2022-11-22T22:18:47.729Z,76.97
2022-11-22T22:23:49.250Z,76.83
2022-11-22T22:28:52.426Z,76.62
2022-11-22T22:33:55.436Z,76.69
2022-11-22T22:38:56.787Z,76.85
2022-11-22T22:43:58.159Z,76.62
2022-11-22T22:49:00.141Z,76.57
2022-11-22T22:54:01.623Z,76.82
2022-11-22T22:59:05.113Z,76.94
2022-11-22T23:04:06.638Z,76.68
2022-11-22T23:09:10.682Z,76.93
2022-11-22T23:14:13.611Z,76.98
2022-11-22T23:19:15.182Z,76.76
2022-11-22T23:24:16.561Z,76.74
2022-11-22T23:29:18.014Z,76.82
2022-11-22T23:34:19.854Z,76.76
2022-11-22T23:39:21.207Z,76.19
2022-11-22T23:44:22.547Z,76.39
2022-11-22T23:49:23.913Z,76.50
2022-11-22T23:54:25.246Z,76.49
2022-11-22T23:59:26.576Z,76.15
